createdAt,value
2022-11-29T00:03:14.303Z,18.23
2022-11-29T00:08:17.597Z,18.38
2022-11-29T00:13:22.243Z,17.27
2022-11-29T00:18:25.545Z,18.55
2022-11-29T00:23:28.820Z,15.57
2022-11-29T00:28:33.799Z,17.13
2022-11-29T00:33:37.028Z,16.70
2022-11-29T00:38:40.380Z,15.02
2022-11-29T00:43:45.167Z,15.45
2022-11-29T00:48:48.401Z,15.60
2022-11-29T00:53:51.705Z,16.45
2022-11-29T00:58:56.341Z,15.93
2022-11-29T01:04:01.284Z,16.15
2022-11-29T01:09:05.518Z,13.98
2022-11-29T01:14:10.447Z,12.57
2022-11-29T01:19:13.718Z,12.55
2022-11-29T01:24:17.004Z,12.82
2022-11-29T01:29:21.686Z,13.95
2022-11-29T01:34:24.978Z,14.55
2022-11-29T01:39:28.293Z,13.13
2022-11-29T01:45:06.174Z,13.40
2022-11-29T01:50:11.023Z,13.25
2022-11-29T01:55:14.987Z,14.63
2022-11-29T02:00:21.389Z,13.33
2022-11-29T02:05:26.359Z,15.90
2022-11-29T02:10:45.791Z,14.35
2022-11-29T02:15:58.116Z,15.02
2022-11-29T02:21:28.453Z,15.15
2022-11-29T02:27:01.344Z,13.20
2022-11-29T02:32:41.682Z,14.90
2022-11-29T02:38:03.409Z,16.33
2022-11-29T02:43:29.431Z,13.55
2022-11-29T02:48:52.144Z,16.20
2022-11-29T02:54:01.552Z,22.65
2022-11-29T02:59:12.455Z,21.75
2022-11-29T03:04:27.337Z,20.45
2022-11-29T03:09:38.255Z,21.48
2022-11-29T03:14:50.829Z,14.30
2022-11-29T03:20:07.657Z,14.75
2022-11-29T03:25:19.153Z,13.88
2022-11-29T03:30:23.038Z,17.77
2022-11-29T03:35:37.945Z,17.60
2022-11-29T03:40:47.877Z,18.23
2022-11-29T03:45:57.341Z,19.52
2022-11-29T03:51:07.834Z,15.27
2022-11-29T03:56:27.431Z,15.20
2022-11-29T04:01:56.250Z,12.38
2022-11-29T04:07:16.486Z,12.18
2022-11-29T04:12:46.624Z,10.40
2022-11-29T04:18:16.201Z,9.80
2022-11-29T04:24:05.668Z,10.82
2022-11-29T04:29:20.688Z,9.05
2022-11-29T04:34:47.413Z,9.50
2022-11-29T04:40:25.481Z,8.68
2022-11-29T04:46:00.397Z,8.38
2022-11-29T04:51:22.722Z,8.07
2022-11-29T04:56:35.996Z,8.30
2022-11-29T05:01:51.701Z,8.35
2022-11-29T05:07:03.565Z,10.60
2022-11-29T05:12:16.165Z,8.68
2022-11-29T05:17:34.769Z,9.57
2022-11-29T05:22:49.805Z,9.48
2022-11-29T05:27:59.623Z,9.10
2022-11-29T05:33:19.079Z,9.52
2022-11-29T05:38:40.295Z,8.50
2022-11-29T05:44:01.155Z,8.00
2022-11-29T05:49:18.306Z,8.00
2022-11-29T05:54:30.838Z,8.00
2022-11-29T05:59:39.398Z,8.85
2022-11-29T06:04:58.759Z,9.05
2022-11-29T06:10:05.532Z,8.75
2022-11-29T06:15:39.454Z,8.30
2022-11-29T06:20:58.725Z,7.88
2022-11-29T06:26:19.596Z,8.68
2022-11-29T06:31:29.682Z,7.40
2022-11-29T06:36:37.570Z,7.28
2022-11-29T06:41:40.758Z,6.35
2022-11-29T06:46:49.172Z,6.20
2022-11-29T06:52:07.095Z,4.97
2022-11-29T06:57:18.261Z,6.70
2022-11-29T07:02:35.465Z,4.97
2022-11-29T07:07:39.244Z,6.07
2022-11-29T07:12:43.090Z,5.90
2022-11-29T07:17:58.151Z,5.05
2022-11-29T07:23:07.844Z,5.38
2022-11-29T07:28:22.308Z,6.80
2022-11-29T07:33:35.822Z,5.97
2022-11-29T07:38:54.299Z,6.00
2022-11-29T07:44:04.705Z,5.82
2022-11-29T07:49:11.254Z,6.07
2022-11-29T07:54:19.175Z,5.28
2022-11-29T07:59:22.303Z,5.70
2022-11-29T08:04:26.942Z,6.13
2022-11-29T08:09:30.090Z,5.70
2022-11-29T08:14:33.780Z,5.57
2022-11-29T08:19:38.342Z,6.57
2022-11-29T08:24:41.501Z,6.20
2022-11-29T08:29:44.706Z,6.43
2022-11-29T08:34:49.694Z,5.90
2022-11-29T08:39:52.850Z,6.35
2022-11-29T08:44:55.974Z,6.22
2022-11-29T08:50:03.527Z,5.65
2022-11-29T08:55:07.491Z,5.50
2022-11-29T09:00:12.034Z,6.40
2022-11-29T09:05:16.792Z,6.37
2022-11-29T09:10:20.116Z,6.55
2022-11-29T09:15:23.273Z,6.53
2022-11-29T09:20:27.944Z,5.93
2022-11-29T09:25:31.177Z,6.53
2022-11-29T09:30:36.689Z,5.57
2022-11-29T09:35:41.215Z,6.53
2022-11-29T09:40:52.712Z,6.33
2022-11-29T09:46:03.357Z,6.40
2022-11-29T09:51:20.086Z,6.00
2022-11-29T09:56:29.840Z,6.97
2022-11-29T10:01:38.499Z,6.57
2022-11-29T10:06:47.062Z,6.85
2022-11-29T10:12:02.441Z,7.32
2022-11-29T10:27:25.065Z,8.45
2022-11-29T10:32:33.326Z,8.48
2022-11-29T10:37:38.072Z,6.97
2022-11-29T10:42:50.329Z,7.00
2022-11-29T10:47:55.209Z,7.20
2022-11-29T10:53:06.069Z,6.55
2022-11-29T10:58:15.613Z,7.45
2022-11-29T11:03:25.754Z,7.80
2022-11-29T11:08:31.900Z,7.57
2022-11-29T11:13:36.481Z,8.30
2022-11-29T11:18:39.894Z,8.32
2022-11-29T11:23:53.313Z,9.80
2022-11-29T11:29:00.734Z,10.50
2022-11-29T11:34:30.288Z,9.48
2022-11-29T11:39:34.853Z,9.32
2022-11-29T11:44:49.504Z,8.90
2022-11-29T11:49:57.209Z,7.90
2022-11-29T11:55:05.722Z,8.30
2022-11-29T12:06:15.925Z,7.75
2022-11-29T12:11:21.875Z,8.85
2022-11-29T12:16:29.696Z,7.75
2022-11-29T12:21:38.859Z,8.00
2022-11-29T12:27:00.024Z,9.38
2022-11-29T12:32:19.031Z,9.45
2022-11-29T12:37:27.860Z,9.77
2022-11-29T12:42:42.358Z,9.82
2022-11-29T12:47:56.406Z,9.83
2022-11-29T12:53:11.957Z,9.18
2022-11-29T12:58:26.476Z,8.38
2022-11-29T13:03:38.566Z,8.57
2022-11-29T13:09:14.734Z,8.93
2022-11-29T13:14:42.624Z,9.40
2022-11-29T13:19:51.335Z,8.00
2022-11-29T13:24:58.865Z,18.13
2022-11-29T13:30:05.944Z,17.50
2022-11-29T13:35:19.654Z,14.18
2022-11-29T13:40:32.417Z,12.30
2022-11-29T13:45:41.559Z,11.32
2022-11-29T13:50:46.228Z,11.25
2022-11-29T13:56:00.122Z,10.90
2022-11-29T14:01:09.360Z,12.10
2022-11-29T14:06:18.895Z,8.80
2022-11-29T14:11:25.797Z,9.52
2022-11-29T14:16:35.447Z,9.40
2022-11-29T14:22:31.590Z,9.05
2022-11-29T14:27:58.945Z,8.82
2022-11-29T14:33:11.184Z,8.43
2022-11-29T14:38:20.337Z,8.20
2022-11-29T14:43:27.882Z,6.95
2022-11-29T14:48:34.295Z,8.30
2022-11-29T14:53:39.057Z,7.95
2022-11-29T14:58:42.254Z,8.45
2022-11-29T15:03:50.966Z,8.25
2022-11-29T15:09:05.042Z,9.68
2022-11-29T15:14:17.298Z,9.37
2022-11-29T15:19:51.200Z,9.68
2022-11-29T15:24:56.396Z,8.10
2022-11-29T15:30:00.566Z,8.32
2022-11-29T15:35:06.388Z,8.90
2022-11-29T15:40:14.095Z,8.35
2022-11-29T15:45:39.119Z,8.23
2022-11-29T15:55:51.900Z,8.30
2022-11-29T16:00:56.137Z,8.13
2022-11-29T16:06:07.601Z,8.75
2022-11-29T16:11:17.207Z,9.20
2022-11-29T16:16:23.090Z,8.20
2022-11-29T16:21:29.122Z,8.43
2022-11-29T16:26:36.738Z,9.48
2022-11-29T16:31:39.958Z,8.65
2022-11-29T16:36:44.621Z,10.45
2022-11-29T16:42:03.798Z,11.02
2022-11-29T16:47:12.462Z,10.02
2022-11-29T16:52:27.166Z,10.95
2022-11-29T16:57:31.263Z,12.00
2022-11-29T17:02:34.659Z,11.43
2022-11-29T17:07:41.360Z,10.02
2022-11-29T17:12:48.081Z,10.48
2022-11-29T17:17:51.657Z,11.70
2022-11-29T17:22:56.209Z,14.45
2022-11-29T17:27:59.342Z,17.98
2022-11-29T17:33:02.502Z,13.43
2022-11-29T17:38:07.073Z,12.35
2022-11-29T17:43:10.345Z,14.32
2022-11-29T17:48:13.493Z,15.38
2022-11-29T17:53:18.054Z,14.77
2022-11-29T17:58:21.183Z,15.23
2022-11-29T18:03:24.303Z,23.05
2022-11-29T18:08:29.206Z,23.33
2022-11-29T18:13:32.349Z,25.15
2022-11-29T18:18:36.365Z,19.38
2022-11-29T18:23:44.037Z,28.08
2022-11-29T18:28:48.035Z,32.42
2022-11-29T18:33:53.758Z,24.98
2022-11-29T18:39:00.262Z,24.60
2022-11-29T18:44:05.775Z,27.45
2022-11-29T18:49:12.092Z,23.38
2022-11-29T18:54:18.752Z,24.90
2022-11-29T18:59:23.102Z,26.63
2022-11-29T19:04:26.284Z,50.57
2022-11-29T19:09:30.817Z,39.90
2022-11-29T19:14:34.101Z,42.50
2022-11-29T19:19:37.224Z,30.92
2022-11-29T19:24:41.789Z,28.00
2022-11-29T19:29:44.936Z,33.47
2022-11-29T19:34:48.054Z,33.22
2022-11-29T19:39:52.987Z,41.15
2022-11-29T19:50:19.625Z,30.02
2022-11-29T19:55:24.189Z,26.95
2022-11-29T20:00:28.348Z,26.57
2022-11-29T20:05:31.497Z,23.30
2022-11-29T20:10:36.177Z,52.90
2022-11-29T20:15:39.353Z,21.70
2022-11-29T20:20:42.553Z,23.27
2022-11-29T20:25:51.554Z,24.85
2022-11-29T20:30:55.165Z,20.33
2022-11-29T20:36:07.106Z,20.42
2022-11-29T20:41:16.589Z,27.75
2022-11-29T20:46:20.219Z,20.40
2022-11-29T20:51:28.386Z,17.42
2022-11-29T20:56:32.931Z,16.45
2022-11-29T21:01:36.112Z,18.37
2022-11-29T21:06:39.798Z,17.70
2022-11-29T21:11:44.807Z,18.52
2022-11-29T21:16:48.478Z,17.38
2022-11-29T21:22:04.376Z,17.33
2022-11-29T21:27:14.809Z,15.52
2022-11-29T21:32:23.213Z,15.60
2022-11-29T21:37:29.345Z,15.13
2022-11-29T21:42:33.909Z,14.25
2022-11-29T21:47:37.106Z,13.10
2022-11-29T21:52:40.262Z,15.82
2022-11-29T21:57:44.782Z,16.30
2022-11-29T22:02:47.988Z,16.37
2022-11-29T22:07:51.150Z,14.07
2022-11-29T22:12:55.729Z,16.98
2022-11-29T22:17:58.955Z,17.20
2022-11-29T22:23:02.249Z,15.48
2022-11-29T22:28:06.897Z,14.77
2022-11-29T22:33:13.336Z,13.02
2022-11-29T22:38:16.783Z,15.05
2022-11-29T22:43:21.346Z,11.80
2022-11-29T22:48:24.505Z,12.70
2022-11-29T22:53:27.658Z,13.35
2022-11-29T22:58:32.255Z,12.82
2022-11-29T23:03:36.799Z,15.47
2022-11-29T23:08:40.864Z,16.40
2022-11-29T23:13:45.710Z,16.77
2022-11-29T23:18:49.438Z,14.95
2022-11-29T23:23:56.281Z,17.25
2022-11-29T23:29:01.266Z,17.60
2022-11-29T23:34:04.878Z,20.13
2022-11-29T23:39:08.372Z,17.63
2022-11-29T23:44:12.915Z,16.88
2022-11-29T23:49:16.071Z,14.73
2022-11-29T23:54:19.249Z,15.27
2022-11-29T23:59:23.803Z,14.40
